sensor_id;sensor_type;location;lat;lon;timestamp;P1;durP1;ratioP1;P2;durP2;ratioP2
21330;SDS011;10824;51.632;4.950;2022-12-07T00:01:23;3.85;;;2.08;;
21330;SDS011;10824;51.632;4.950;2022-12-07T00:03:53;5.10;;;2.33;;
21330;SDS011;10824;51.632;4.950;2022-12-07T00:06:38;3.10;;;1.40;;
21330;SDS011;10824;51.632;4.950;2022-12-07T00:09:08;3.17;;;1.17;;
21330;SDS011;10824;51.632;4.950;2022-12-07T00:11:37;5.00;;;2.08;;
21330;SDS011;10824;51.632;4.950;2022-12-07T00:14:06;3.75;;;1.42;;
21330;SDS011;10824;51.632;4.950;2022-12-07T00:16:34;9.27;;;2.63;;
21330;SDS011;10824;51.632;4.950;2022-12-07T00:19:02;3.80;;;1.83;;
21330;SDS011;10824;51.632;4.950;2022-12-07T00:21:30;4.07;;;2.00;;
21330;SDS011;10824;51.632;4.950;2022-12-07T00:23:59;2.63;;;1.33;;
21330;SDS011;10824;51.632;4.950;2022-12-07T00:26:28;7.65;;;3.63;;
21330;SDS011;10824;51.632;4.950;2022-12-07T00:29:06;4.80;;;1.40;;
21330;SDS011;10824;51.632;4.950;2022-12-07T00:31:38;4.40;;;1.70;;
21330;SDS011;10824;51.632;4.950;2022-12-07T00:34:06;3.30;;;1.27;;
21330;SDS011;10824;51.632;4.950;2022-12-07T00:36:37;5.18;;;2.38;;
21330;SDS011;10824;51.632;4.950;2022-12-07T00:39:04;6.35;;;1.80;;
21330;SDS011;10824;51.632;4.950;2022-12-07T00:41:31;3.28;;;2.05;;
21330;SDS011;10824;51.632;4.950;2022-12-07T00:43:58;4.45;;;2.13;;
21330;SDS011;10824;51.632;4.950;2022-12-07T00:46:25;2.20;;;1.38;;
21330;SDS011;10824;51.632;4.950;2022-12-07T00:48:53;1.58;;;1.17;;
21330;SDS011;10824;51.632;4.950;2022-12-07T00:51:21;2.55;;;1.50;;
21330;SDS011;10824;51.632;4.950;2022-12-07T00:53:50;2.72;;;1.77;;
21330;SDS011;10824;51.632;4.950;2022-12-07T00:56:21;2.92;;;1.50;;
21330;SDS011;10824;51.632;4.950;2022-12-07T00:58:51;4.65;;;1.83;;
21330;SDS011;10824;51.632;4.950;2022-12-07T01:01:23;3.83;;;2.58;;
21330;SDS011;10824;51.632;4.950;2022-12-07T01:03:51;4.18;;;1.30;;
21330;SDS011;10824;51.632;4.950;2022-12-07T01:06:19;3.83;;;1.50;;
21330;SDS011;10824;51.632;4.950;2022-12-07T01:08:47;1.73;;;1.20;;
21330;SDS011;10824;51.632;4.950;2022-12-07T01:11:15;2.85;;;1.92;;
21330;SDS011;10824;51.632;4.950;2022-12-07T01:13:44;1.02;;;0.95;;
21330;SDS011;10824;51.632;4.950;2022-12-07T01:16:13;3.88;;;1.25;;
21330;SDS011;10824;51.632;4.950;2022-12-07T01:18:41;2.63;;;1.33;;
21330;SDS011;10824;51.632;4.950;2022-12-07T01:21:10;1.95;;;0.93;;
21330;SDS011;10824;51.632;4.950;2022-12-07T01:23:42;2.38;;;1.48;;
21330;SDS011;10824;51.632;4.950;2022-12-07T01:26:11;4.10;;;1.33;;
21330;SDS011;10824;51.632;4.950;2022-12-07T01:28:40;2.17;;;0.98;;
21330;SDS011;10824;51.632;4.950;2022-12-07T01:31:08;4.13;;;0.85;;
21330;SDS011;10824;51.632;4.950;2022-12-07T01:33:42;1.85;;;0.80;;
21330;SDS011;10824;51.632;4.950;2022-12-07T01:36:18;1.27;;;0.95;;
21330;SDS011;10824;51.632;4.950;2022-12-07T01:38:47;2.35;;;0.90;;
21330;SDS011;10824;51.632;4.950;2022-12-07T01:41:18;5.88;;;1.48;;
21330;SDS011;10824;51.632;4.950;2022-12-07T01:46:34;1.55;;;0.82;;
21330;SDS011;10824;51.632;4.950;2022-12-07T01:49:01;2.13;;;0.60;;
21330;SDS011;10824;51.632;4.950;2022-12-07T01:51:32;3.22;;;1.33;;
21330;SDS011;10824;51.632;4.950;2022-12-07T01:53:59;1.65;;;0.85;;
21330;SDS011;10824;51.632;4.950;2022-12-07T01:56:27;1.85;;;0.77;;
21330;SDS011;10824;51.632;4.950;2022-12-07T01:58:55;2.17;;;0.80;;
21330;SDS011;10824;51.632;4.950;2022-12-07T02:01:25;1.27;;;0.88;;
21330;SDS011;10824;51.632;4.950;2022-12-07T02:03:52;1.40;;;0.93;;
21330;SDS011;10824;51.632;4.950;2022-12-07T02:06:21;1.95;;;1.05;;
21330;SDS011;10824;51.632;4.950;2022-12-07T02:08:50;3.95;;;0.93;;
21330;SDS011;10824;51.632;4.950;2022-12-07T02:11:17;3.25;;;1.10;;
21330;SDS011;10824;51.632;4.950;2022-12-07T02:13:45;2.83;;;0.93;;
21330;SDS011;10824;51.632;4.950;2022-12-07T02:21:46;2.45;;;1.65;;
21330;SDS011;10824;51.632;4.950;2022-12-07T02:27:06;2.08;;;0.90;;
21330;SDS011;10824;51.632;4.950;2022-12-07T02:32:17;1.77;;;0.80;;
21330;SDS011;10824;51.632;4.950;2022-12-07T02:35:00;3.38;;;0.85;;
21330;SDS011;10824;51.632;4.950;2022-12-07T02:37:57;3.15;;;0.93;;
21330;SDS011;10824;51.632;4.950;2022-12-07T02:40:43;1.48;;;0.70;;
21330;SDS011;10824;51.632;4.950;2022-12-07T02:43:33;2.53;;;1.38;;
21330;SDS011;10824;51.632;4.950;2022-12-07T02:46:06;0.80;;;0.80;;
21330;SDS011;10824;51.632;4.950;2022-12-07T02:48:40;1.52;;;1.42;;
21330;SDS011;10824;51.632;4.950;2022-12-07T02:51:09;1.20;;;0.77;;
21330;SDS011;10824;51.632;4.950;2022-12-07T02:53:45;2.35;;;1.10;;
21330;SDS011;10824;51.632;4.950;2022-12-07T03:10:22;3.58;;;1.20;;
21330;SDS011;10824;51.632;4.950;2022-12-07T03:15:54;2.30;;;1.73;;
21330;SDS011;10824;51.632;4.950;2022-12-07T03:18:25;5.65;;;1.85;;
21330;SDS011;10824;51.632;4.950;2022-12-07T03:20:57;2.67;;;1.67;;
21330;SDS011;10824;51.632;4.950;2022-12-07T03:23:28;7.28;;;2.58;;
21330;SDS011;10824;51.632;4.950;2022-12-07T03:26:00;2.42;;;1.65;;
21330;SDS011;10824;51.632;4.950;2022-12-07T03:28:31;4.32;;;1.50;;
21330;SDS011;10824;51.632;4.950;2022-12-07T03:31:12;4.38;;;2.05;;
21330;SDS011;10824;51.632;4.950;2022-12-07T03:36:25;4.93;;;2.38;;
21330;SDS011;10824;51.632;4.950;2022-12-07T03:39:14;2.78;;;1.48;;
21330;SDS011;10824;51.632;4.950;2022-12-07T03:41:43;2.53;;;1.42;;
21330;SDS011;10824;51.632;4.950;2022-12-07T03:44:12;6.28;;;2.35;;
21330;SDS011;10824;51.632;4.950;2022-12-07T03:49:23;5.32;;;2.58;;
21330;SDS011;10824;51.632;4.950;2022-12-07T03:52:08;5.75;;;1.90;;
21330;SDS011;10824;51.632;4.950;2022-12-07T03:54:45;2.53;;;1.63;;
21330;SDS011;10824;51.632;4.950;2022-12-07T03:57:18;2.60;;;1.70;;
21330;SDS011;10824;51.632;4.950;2022-12-07T03:59:46;3.90;;;2.50;;
21330;SDS011;10824;51.632;4.950;2022-12-07T04:02:14;2.78;;;2.03;;
21330;SDS011;10824;51.632;4.950;2022-12-07T04:04:42;4.28;;;1.50;;
21330;SDS011;10824;51.632;4.950;2022-12-07T04:07:09;3.10;;;1.80;;
21330;SDS011;10824;51.632;4.950;2022-12-07T04:09:37;5.57;;;2.58;;
21330;SDS011;10824;51.632;4.950;2022-12-07T04:12:04;4.72;;;2.05;;
21330;SDS011;10824;51.632;4.950;2022-12-07T04:14:31;3.58;;;2.42;;
21330;SDS011;10824;51.632;4.950;2022-12-07T04:16:58;3.25;;;1.55;;
21330;SDS011;10824;51.632;4.950;2022-12-07T04:19:26;2.38;;;1.38;;
21330;SDS011;10824;51.632;4.950;2022-12-07T04:21:55;2.63;;;2.03;;
21330;SDS011;10824;51.632;4.950;2022-12-07T04:24:23;4.13;;;2.30;;
21330;SDS011;10824;51.632;4.950;2022-12-07T04:26:51;3.03;;;1.55;;
21330;SDS011;10824;51.632;4.950;2022-12-07T04:29:19;1.67;;;1.50;;
21330;SDS011;10824;51.632;4.950;2022-12-07T04:31:46;1.55;;;1.08;;
21330;SDS011;10824;51.632;4.950;2022-12-07T04:34:14;3.30;;;1.20;;
21330;SDS011;10824;51.632;4.950;2022-12-07T04:36:42;5.32;;;2.00;;
21330;SDS011;10824;51.632;4.950;2022-12-07T04:39:31;5.53;;;2.08;;
21330;SDS011;10824;51.632;4.950;2022-12-07T04:41:58;2.45;;;1.35;;
21330;SDS011;10824;51.632;4.950;2022-12-07T04:44:26;6.07;;;0.80;;
21330;SDS011;10824;51.632;4.950;2022-12-07T04:46:54;2.38;;;1.30;;
21330;SDS011;10824;51.632;4.950;2022-12-07T04:49:22;2.95;;;1.25;;
21330;SDS011;10824;51.632;4.950;2022-12-07T04:51:49;2.03;;;1.08;;
21330;SDS011;10824;51.632;4.950;2022-12-07T04:54:17;4.72;;;1.08;;
21330;SDS011;10824;51.632;4.950;2022-12-07T04:56:44;1.92;;;1.13;;
21330;SDS011;10824;51.632;4.950;2022-12-07T04:59:12;1.92;;;1.00;;
21330;SDS011;10824;51.632;4.950;2022-12-07T05:01:40;1.92;;;1.20;;
21330;SDS011;10824;51.632;4.950;2022-12-07T05:04:07;3.47;;;1.27;;
21330;SDS011;10824;51.632;4.950;2022-12-07T05:06:34;2.05;;;1.30;;
21330;SDS011;10824;51.632;4.950;2022-12-07T05:09:02;4.85;;;2.65;;
21330;SDS011;10824;51.632;4.950;2022-12-07T05:11:29;4.30;;;1.77;;
21330;SDS011;10824;51.632;4.950;2022-12-07T05:14:16;5.72;;;2.25;;
21330;SDS011;10824;51.632;4.950;2022-12-07T05:16:45;4.75;;;2.47;;
21330;SDS011;10824;51.632;4.950;2022-12-07T05:19:14;4.88;;;2.65;;
21330;SDS011;10824;51.632;4.950;2022-12-07T05:21:41;23.35;;;3.00;;
21330;SDS011;10824;51.632;4.950;2022-12-07T05:24:09;5.40;;;2.08;;
21330;SDS011;10824;51.632;4.950;2022-12-07T05:26:38;5.30;;;2.58;;
21330;SDS011;10824;51.632;4.950;2022-12-07T05:29:05;4.28;;;1.90;;
21330;SDS011;10824;51.632;4.950;2022-12-07T05:31:36;4.95;;;2.95;;
21330;SDS011;10824;51.632;4.950;2022-12-07T05:34:03;4.65;;;2.45;;
21330;SDS011;10824;51.632;4.950;2022-12-07T05:36:30;2.30;;;1.42;;
21330;SDS011;10824;51.632;4.950;2022-12-07T05:38:58;3.72;;;1.65;;
21330;SDS011;10824;51.632;4.950;2022-12-07T05:41:26;5.25;;;1.65;;
21330;SDS011;10824;51.632;4.950;2022-12-07T05:44:12;2.50;;;2.30;;
21330;SDS011;10824;51.632;4.950;2022-12-07T05:46:39;3.38;;;2.00;;
21330;SDS011;10824;51.632;4.950;2022-12-07T05:49:06;8.55;;;2.00;;
21330;SDS011;10824;51.632;4.950;2022-12-07T05:51:33;4.38;;;2.22;;
21330;SDS011;10824;51.632;4.950;2022-12-07T05:54:00;5.93;;;2.38;;
21330;SDS011;10824;51.632;4.950;2022-12-07T05:56:27;3.55;;;2.38;;
21330;SDS011;10824;51.632;4.950;2022-12-07T05:58:54;16.33;;;4.10;;
21330;SDS011;10824;51.632;4.950;2022-12-07T06:01:39;15.77;;;4.10;;
21330;SDS011;10824;51.632;4.950;2022-12-07T06:04:06;14.15;;;3.25;;
21330;SDS011;10824;51.632;4.950;2022-12-07T06:06:35;4.50;;;2.63;;
21330;SDS011;10824;51.632;4.950;2022-12-07T06:09:02;2.67;;;1.95;;
21330;SDS011;10824;51.632;4.950;2022-12-07T06:11:30;3.53;;;2.40;;
21330;SDS011;10824;51.632;4.950;2022-12-07T06:14:23;3.58;;;1.90;;
21330;SDS011;10824;51.632;4.950;2022-12-07T06:16:49;2.92;;;1.70;;
21330;SDS011;10824;51.632;4.950;2022-12-07T06:19:16;6.18;;;1.67;;
21330;SDS011;10824;51.632;4.950;2022-12-07T06:21:43;3.83;;;1.55;;
21330;SDS011;10824;51.632;4.950;2022-12-07T06:24:11;3.20;;;1.58;;
21330;SDS011;10824;51.632;4.950;2022-12-07T06:26:39;7.25;;;2.47;;
21330;SDS011;10824;51.632;4.950;2022-12-07T06:29:06;6.38;;;3.83;;
21330;SDS011;10824;51.632;4.950;2022-12-07T06:31:33;3.63;;;1.65;;
21330;SDS011;10824;51.632;4.950;2022-12-07T06:34:02;5.40;;;1.90;;
21330;SDS011;10824;51.632;4.950;2022-12-07T06:36:30;8.15;;;1.58;;
21330;SDS011;10824;51.632;4.950;2022-12-07T06:38:58;4.20;;;1.90;;
21330;SDS011;10824;51.632;4.950;2022-12-07T06:41:25;10.50;;;2.05;;
21330;SDS011;10824;51.632;4.950;2022-12-07T06:43:52;5.80;;;2.15;;
21330;SDS011;10824;51.632;4.950;2022-12-07T06:46:21;3.22;;;1.70;;
21330;SDS011;10824;51.632;4.950;2022-12-07T06:48:49;3.45;;;2.10;;
21330;SDS011;10824;51.632;4.950;2022-12-07T06:51:16;6.38;;;2.42;;
21330;SDS011;10824;51.632;4.950;2022-12-07T06:53:43;2.65;;;1.70;;
21330;SDS011;10824;51.632;4.950;2022-12-07T06:56:10;2.75;;;2.38;;
21330;SDS011;10824;51.632;4.950;2022-12-07T06:58:38;7.28;;;2.13;;
21330;SDS011;10824;51.632;4.950;2022-12-07T07:01:15;3.55;;;1.40;;
21330;SDS011;10824;51.632;4.950;2022-12-07T07:03:44;7.32;;;2.33;;
21330;SDS011;10824;51.632;4.950;2022-12-07T07:06:12;4.20;;;2.45;;
21330;SDS011;10824;51.632;4.950;2022-12-07T07:08:39;4.90;;;1.60;;
21330;SDS011;10824;51.632;4.950;2022-12-07T07:11:07;4.75;;;1.42;;
21330;SDS011;10824;51.632;4.950;2022-12-07T07:13:38;7.73;;;2.37;;
21330;SDS011;10824;51.632;4.950;2022-12-07T07:16:05;4.00;;;2.17;;
21330;SDS011;10824;51.632;4.950;2022-12-07T07:18:33;4.35;;;2.15;;
21330;SDS011;10824;51.632;4.950;2022-12-07T07:21:00;5.72;;;3.53;;
21330;SDS011;10824;51.632;4.950;2022-12-07T07:23:27;6.68;;;2.00;;
21330;SDS011;10824;51.632;4.950;2022-12-07T07:25:54;4.25;;;2.63;;
21330;SDS011;10824;51.632;4.950;2022-12-07T07:28:21;9.80;;;2.70;;
21330;SDS011;10824;51.632;4.950;2022-12-07T07:30:48;1.65;;;1.50;;
21330;SDS011;10824;51.632;4.950;2022-12-07T07:33:15;2.63;;;1.63;;
21330;SDS011;10824;51.632;4.950;2022-12-07T07:35:42;24.98;;;2.30;;
21330;SDS011;10824;51.632;4.950;2022-12-07T07:38:09;2.83;;;2.00;;
21330;SDS011;10824;51.632;4.950;2022-12-07T07:40:36;4.45;;;2.10;;
21330;SDS011;10824;51.632;4.950;2022-12-07T07:43:03;3.45;;;1.92;;
21330;SDS011;10824;51.632;4.950;2022-12-07T07:45:30;2.60;;;1.67;;
21330;SDS011;10824;51.632;4.950;2022-12-07T07:47:57;2.45;;;1.70;;
21330;SDS011;10824;51.632;4.950;2022-12-07T07:50:24;4.15;;;2.28;;
21330;SDS011;10824;51.632;4.950;2022-12-07T07:52:51;4.80;;;2.22;;
21330;SDS011;10824;51.632;4.950;2022-12-07T07:55:18;14.82;;;1.83;;
21330;SDS011;10824;51.632;4.950;2022-12-07T07:57:45;6.70;;;1.80;;
21330;SDS011;10824;51.632;4.950;2022-12-07T08:00:20;11.35;;;2.65;;
21330;SDS011;10824;51.632;4.950;2022-12-07T08:02:47;4.15;;;2.05;;
21330;SDS011;10824;51.632;4.950;2022-12-07T08:05:14;11.82;;;2.03;;
21330;SDS011;10824;51.632;4.950;2022-12-07T08:07:42;2.58;;;1.65;;
21330;SDS011;10824;51.632;4.950;2022-12-07T08:10:11;2.95;;;2.08;;
21330;SDS011;10824;51.632;4.950;2022-12-07T08:12:40;5.10;;;1.85;;
21330;SDS011;10824;51.632;4.950;2022-12-07T08:15:27;1.77;;;1.30;;
21330;SDS011;10824;51.632;4.950;2022-12-07T08:17:55;3.85;;;1.80;;
21330;SDS011;10824;51.632;4.950;2022-12-07T08:20:22;3.47;;;1.90;;
21330;SDS011;10824;51.632;4.950;2022-12-07T08:22:49;4.20;;;2.25;;
21330;SDS011;10824;51.632;4.950;2022-12-07T08:25:17;5.22;;;2.53;;
21330;SDS011;10824;51.632;4.950;2022-12-07T08:27:44;6.22;;;2.38;;
21330;SDS011;10824;51.632;4.950;2022-12-07T08:30:11;3.03;;;1.60;;
21330;SDS011;10824;51.632;4.950;2022-12-07T08:32:38;2.38;;;1.88;;
21330;SDS011;10824;51.632;4.950;2022-12-07T08:35:05;4.55;;;2.38;;
21330;SDS011;10824;51.632;4.950;2022-12-07T08:37:33;3.75;;;1.92;;
21330;SDS011;10824;51.632;4.950;2022-12-07T08:40:00;6.25;;;1.55;;
21330;SDS011;10824;51.632;4.950;2022-12-07T08:42:27;3.67;;;2.10;;
21330;SDS011;10824;51.632;4.950;2022-12-07T08:44:56;6.22;;;2.00;;
21330;SDS011;10824;51.632;4.950;2022-12-07T08:47:24;3.95;;;2.13;;
21330;SDS011;10824;51.632;4.950;2022-12-07T08:49:52;4.88;;;1.90;;
21330;SDS011;10824;51.632;4.950;2022-12-07T08:52:20;4.88;;;1.95;;
21330;SDS011;10824;51.632;4.950;2022-12-07T08:54:47;5.97;;;2.13;;
21330;SDS011;10824;51.632;4.950;2022-12-07T08:57:15;10.07;;;2.38;;
21330;SDS011;10824;51.632;4.950;2022-12-07T08:59:42;7.75;;;1.73;;
21330;SDS011;10824;51.632;4.950;2022-12-07T09:02:09;3.95;;;1.90;;
21330;SDS011;10824;51.632;4.950;2022-12-07T09:04:37;8.93;;;2.28;;
21330;SDS011;10824;51.632;4.950;2022-12-07T09:07:05;3.50;;;2.15;;
21330;SDS011;10824;51.632;4.950;2022-12-07T09:09:34;4.53;;;1.77;;
21330;SDS011;10824;51.632;4.950;2022-12-07T09:12:01;5.03;;;2.38;;
21330;SDS011;10824;51.632;4.950;2022-12-07T09:14:28;4.82;;;1.88;;
21330;SDS011;10824;51.632;4.950;2022-12-07T09:17:04;5.10;;;3.13;;
21330;SDS011;10824;51.632;4.950;2022-12-07T09:19:36;5.30;;;2.03;;
21330;SDS011;10824;51.632;4.950;2022-12-07T09:22:03;4.28;;;2.25;;
21330;SDS011;10824;51.632;4.950;2022-12-07T09:24:31;3.42;;;2.20;;
21330;SDS011;10824;51.632;4.950;2022-12-07T09:26:58;4.60;;;2.08;;
21330;SDS011;10824;51.632;4.950;2022-12-07T09:29:25;7.70;;;4.78;;
21330;SDS011;10824;51.632;4.950;2022-12-07T09:31:52;8.13;;;2.70;;
21330;SDS011;10824;51.632;4.950;2022-12-07T09:34:20;3.28;;;1.88;;
21330;SDS011;10824;51.632;4.950;2022-12-07T09:36:47;2.90;;;1.95;;
21330;SDS011;10824;51.632;4.950;2022-12-07T09:39:14;5.22;;;2.40;;
21330;SDS011;10824;51.632;4.950;2022-12-07T09:41:43;3.35;;;2.40;;
21330;SDS011;10824;51.632;4.950;2022-12-07T09:44:21;2.83;;;2.00;;
21330;SDS011;10824;51.632;4.950;2022-12-07T09:46:51;6.20;;;2.20;;
21330;SDS011;10824;51.632;4.950;2022-12-07T09:49:20;3.67;;;1.67;;
21330;SDS011;10824;51.632;4.950;2022-12-07T09:52:02;2.17;;;1.50;;
21330;SDS011;10824;51.632;4.950;2022-12-07T09:54:35;2.47;;;1.30;;
21330;SDS011;10824;51.632;4.950;2022-12-07T09:57:07;6.00;;;3.47;;
21330;SDS011;10824;51.632;4.950;2022-12-07T09:59:37;4.30;;;1.58;;
21330;SDS011;10824;51.632;4.950;2022-12-07T10:02:23;4.70;;;1.70;;
21330;SDS011;10824;51.632;4.950;2022-12-07T10:05:04;2.28;;;1.25;;
21330;SDS011;10824;51.632;4.950;2022-12-07T10:07:42;2.85;;;1.80;;
21330;SDS011;10824;51.632;4.950;2022-12-07T10:10:14;9.02;;;1.90;;
21330;SDS011;10824;51.632;4.950;2022-12-07T10:15:21;4.90;;;1.30;;
21330;SDS011;10824;51.632;4.950;2022-12-07T10:17:50;5.43;;;1.55;;
21330;SDS011;10824;51.632;4.950;2022-12-07T10:20:25;2.83;;;1.23;;
21330;SDS011;10824;51.632;4.950;2022-12-07T10:22:53;3.40;;;1.60;;
21330;SDS011;10824;51.632;4.950;2022-12-07T10:25:22;3.40;;;1.10;;
21330;SDS011;10824;51.632;4.950;2022-12-07T10:27:59;2.70;;;1.55;;
21330;SDS011;10824;51.632;4.950;2022-12-07T10:30:57;6.50;;;2.03;;
21330;SDS011;10824;51.632;4.950;2022-12-07T10:33:38;5.20;;;1.35;;
21330;SDS011;10824;51.632;4.950;2022-12-07T10:36:19;8.93;;;2.53;;
21330;SDS011;10824;51.632;4.950;2022-12-07T10:38:59;15.50;;;2.40;;
21330;SDS011;10824;51.632;4.950;2022-12-07T10:41:29;9.63;;;1.45;;
21330;SDS011;10824;51.632;4.950;2022-12-07T10:43:57;2.28;;;1.10;;
21330;SDS011;10824;51.632;4.950;2022-12-07T10:46:31;7.40;;;2.53;;
21330;SDS011;10824;51.632;4.950;2022-12-07T10:51:47;3.15;;;1.55;;
21330;SDS011;10824;51.632;4.950;2022-12-07T10:59:37;2.72;;;0.80;;
21330;SDS011;10824;51.632;4.950;2022-12-07T11:02:25;2.45;;;1.50;;
21330;SDS011;10824;51.632;4.950;2022-12-07T11:08:17;1.98;;;0.95;;
21330;SDS011;10824;51.632;4.950;2022-12-07T11:11:03;2.55;;;1.38;;
21330;SDS011;10824;51.632;4.950;2022-12-07T11:13:53;6.20;;;1.42;;
21330;SDS011;10824;51.632;4.950;2022-12-07T11:25:32;1.35;;;1.05;;
21330;SDS011;10824;51.632;4.950;2022-12-07T11:33:46;1.83;;;0.82;;
21330;SDS011;10824;51.632;4.950;2022-12-07T11:39:20;5.65;;;0.98;;
21330;SDS011;10824;51.632;4.950;2022-12-07T11:42:00;6.32;;;0.82;;
21330;SDS011;10824;51.632;4.950;2022-12-07T11:47:47;1.73;;;0.63;;
21330;SDS011;10824;51.632;4.950;2022-12-07T11:53:05;5.05;;;1.10;;
21330;SDS011;10824;51.632;4.950;2022-12-07T11:55:57;3.78;;;0.80;;
21330;SDS011;10824;51.632;4.950;2022-12-07T12:01:19;3.65;;;1.23;;
21330;SDS011;10824;51.632;4.950;2022-12-07T12:06:49;2.05;;;0.70;;
21330;SDS011;10824;51.632;4.950;2022-12-07T12:21:10;0.70;;;0.50;;
21330;SDS011;10824;51.632;4.950;2022-12-07T12:26:18;0.70;;;0.55;;
21330;SDS011;10824;51.632;4.950;2022-12-07T12:28:51;1.95;;;1.00;;
21330;SDS011;10824;51.632;4.950;2022-12-07T12:31:39;3.67;;;0.88;;
21330;SDS011;10824;51.632;4.950;2022-12-07T12:34:30;1.15;;;0.75;;
21330;SDS011;10824;51.632;4.950;2022-12-07T12:42:45;2.83;;;0.93;;
21330;SDS011;10824;51.632;4.950;2022-12-07T12:45:19;2.67;;;1.23;;
21330;SDS011;10824;51.632;4.950;2022-12-07T12:48:04;4.53;;;1.00;;
21330;SDS011;10824;51.632;4.950;2022-12-07T13:02:24;1.63;;;0.80;;
21330;SDS011;10824;51.632;4.950;2022-12-07T13:18:38;0.93;;;0.70;;
21330;SDS011;10824;51.632;4.950;2022-12-07T13:26:36;0.50;;;0.50;;
21330;SDS011;10824;51.632;4.950;2022-12-07T13:31:40;0.77;;;0.45;;
21330;SDS011;10824;51.632;4.950;2022-12-07T13:37:14;0.68;;;0.40;;
21330;SDS011;10824;51.632;4.950;2022-12-07T13:39:51;0.68;;;0.43;;
21330;SDS011;10824;51.632;4.950;2022-12-07T13:47:53;1.15;;;0.52;;
21330;SDS011;10824;51.632;4.950;2022-12-07T13:50:30;0.97;;;0.60;;
21330;SDS011;10824;51.632;4.950;2022-12-07T13:52:58;1.10;;;0.40;;
21330;SDS011;10824;51.632;4.950;2022-12-07T13:55:28;1.33;;;0.40;;
21330;SDS011;10824;51.632;4.950;2022-12-07T13:57:56;1.00;;;0.50;;
21330;SDS011;10824;51.632;4.950;2022-12-07T14:00:24;0.73;;;0.60;;
21330;SDS011;10824;51.632;4.950;2022-12-07T14:05:41;1.80;;;0.85;;
21330;SDS011;10824;51.632;4.950;2022-12-07T14:16:33;2.25;;;0.93;;
21330;SDS011;10824;51.632;4.950;2022-12-07T14:19:03;1.60;;;0.70;;
21330;SDS011;10824;51.632;4.950;2022-12-07T14:22:38;1.70;;;1.10;;
21330;SDS011;10824;51.632;4.950;2022-12-07T14:24:51;0.60;;;0.60;;
21330;SDS011;10824;51.632;4.950;2022-12-07T14:27:30;0.82;;;0.60;;
21330;SDS011;10824;51.632;4.950;2022-12-07T14:30:01;2.90;;;0.90;;
21330;SDS011;10824;51.632;4.950;2022-12-07T14:32:32;2.40;;;0.80;;
21330;SDS011;10824;51.632;4.950;2022-12-07T14:35:11;1.13;;;0.68;;
21330;SDS011;10824;51.632;4.950;2022-12-07T14:37:40;2.22;;;0.80;;
21330;SDS011;10824;51.632;4.950;2022-12-07T14:40:12;1.48;;;1.00;;
21330;SDS011;10824;51.632;4.950;2022-12-07T14:42:41;3.45;;;0.82;;
21330;SDS011;10824;51.632;4.950;2022-12-07T14:45:13;2.03;;;1.35;;
21330;SDS011;10824;51.632;4.950;2022-12-07T14:47:44;4.55;;;1.30;;
21330;SDS011;10824;51.632;4.950;2022-12-07T14:50:33;1.60;;;1.20;;
21330;SDS011;10824;51.632;4.950;2022-12-07T14:53:06;1.15;;;1.05;;
21330;SDS011;10824;51.632;4.950;2022-12-07T14:55:54;2.08;;;1.00;;
21330;SDS011;10824;51.632;4.950;2022-12-07T14:58:21;1.45;;;1.00;;
21330;SDS011;10824;51.632;4.950;2022-12-07T15:00:51;1.75;;;0.93;;
21330;SDS011;10824;51.632;4.950;2022-12-07T15:03:21;2.78;;;0.70;;
21330;SDS011;10824;51.632;4.950;2022-12-07T15:05:48;1.25;;;0.73;;
21330;SDS011;10824;51.632;4.950;2022-12-07T15:08:15;1.48;;;0.70;;
21330;SDS011;10824;51.632;4.950;2022-12-07T15:10:42;3.13;;;1.05;;
21330;SDS011;10824;51.632;4.950;2022-12-07T15:13:11;1.35;;;0.80;;
21330;SDS011;10824;51.632;4.950;2022-12-07T15:15:57;3.45;;;0.80;;
21330;SDS011;10824;51.632;4.950;2022-12-07T15:18:24;2.88;;;0.82;;
21330;SDS011;10824;51.632;4.950;2022-12-07T15:20:51;1.67;;;0.70;;
21330;SDS011;10824;51.632;4.950;2022-12-07T15:23:18;0.80;;;0.55;;
21330;SDS011;10824;51.632;4.950;2022-12-07T15:25:47;2.75;;;0.80;;
21330;SDS011;10824;51.632;4.950;2022-12-07T15:28:15;0.40;;;0.40;;
21330;SDS011;10824;51.632;4.950;2022-12-07T15:30:45;2.15;;;0.80;;
21330;SDS011;10824;51.632;4.950;2022-12-07T15:33:12;0.65;;;0.60;;
21330;SDS011;10824;51.632;4.950;2022-12-07T15:35:43;1.30;;;0.70;;
21330;SDS011;10824;51.632;4.950;2022-12-07T15:38:11;2.05;;;1.10;;
21330;SDS011;10824;51.632;4.950;2022-12-07T15:40:41;3.38;;;1.80;;
21330;SDS011;10824;51.632;4.950;2022-12-07T15:43:09;2.85;;;1.40;;
21330;SDS011;10824;51.632;4.950;2022-12-07T15:45:56;2.17;;;1.30;;
21330;SDS011;10824;51.632;4.950;2022-12-07T15:48:23;3.55;;;1.30;;
21330;SDS011;10824;51.632;4.950;2022-12-07T15:51:00;2.15;;;1.73;;
21330;SDS011;10824;51.632;4.950;2022-12-07T15:53:30;3.72;;;2.17;;
21330;SDS011;10824;51.632;4.950;2022-12-07T15:55:57;1.75;;;1.25;;
21330;SDS011;10824;51.632;4.950;2022-12-07T15:58:24;6.63;;;1.20;;
21330;SDS011;10824;51.632;4.950;2022-12-07T16:00:51;4.28;;;1.10;;
21330;SDS011;10824;51.632;4.950;2022-12-07T16:03:18;1.38;;;1.27;;
21330;SDS011;10824;51.632;4.950;2022-12-07T16:05:50;1.70;;;1.05;;
21330;SDS011;10824;51.632;4.950;2022-12-07T16:08:18;1.67;;;0.98;;
21330;SDS011;10824;51.632;4.950;2022-12-07T16:10:46;1.67;;;1.00;;
21330;SDS011;10824;51.632;4.950;2022-12-07T16:13:13;4.78;;;1.90;;
21330;SDS011;10824;51.632;4.950;2022-12-07T16:15:41;3.50;;;1.88;;
21330;SDS011;10824;51.632;4.950;2022-12-07T16:18:08;3.45;;;2.25;;
21330;SDS011;10824;51.632;4.950;2022-12-07T16:20:35;5.05;;;1.65;;
21330;SDS011;10824;51.632;4.950;2022-12-07T16:23:02;2.15;;;1.10;;
21330;SDS011;10824;51.632;4.950;2022-12-07T16:25:29;1.25;;;0.90;;
21330;SDS011;10824;51.632;4.950;2022-12-07T16:27:56;2.20;;;1.10;;
21330;SDS011;10824;51.632;4.950;2022-12-07T16:30:23;2.08;;;0.80;;
21330;SDS011;10824;51.632;4.950;2022-12-07T16:32:51;1.88;;;1.00;;
21330;SDS011;10824;51.632;4.950;2022-12-07T16:35:24;2.33;;;1.55;;
21330;SDS011;10824;51.632;4.950;2022-12-07T16:37:51;3.55;;;1.65;;
21330;SDS011;10824;51.632;4.950;2022-12-07T16:40:18;6.43;;;2.53;;
21330;SDS011;10824;51.632;4.950;2022-12-07T16:42:45;3.67;;;1.67;;
21330;SDS011;10824;51.632;4.950;2022-12-07T16:45:13;2.75;;;2.00;;
21330;SDS011;10824;51.632;4.950;2022-12-07T16:47:46;2.58;;;1.45;;
21330;SDS011;10824;51.632;4.950;2022-12-07T16:50:12;1.52;;;1.30;;
21330;SDS011;10824;51.632;4.950;2022-12-07T16:52:41;4.10;;;1.90;;
21330;SDS011;10824;51.632;4.950;2022-12-07T16:55:08;1.88;;;1.40;;
21330;SDS011;10824;51.632;4.950;2022-12-07T16:57:35;2.35;;;1.65;;
21330;SDS011;10824;51.632;4.950;2022-12-07T17:00:02;6.45;;;1.75;;
21330;SDS011;10824;51.632;4.950;2022-12-07T17:02:30;3.17;;;1.58;;
21330;SDS011;10824;51.632;4.950;2022-12-07T17:04:57;3.45;;;1.80;;
21330;SDS011;10824;51.632;4.950;2022-12-07T17:07:24;4.20;;;2.85;;
21330;SDS011;10824;51.632;4.950;2022-12-07T17:09:52;4.80;;;2.17;;
21330;SDS011;10824;51.632;4.950;2022-12-07T17:12:19;2.88;;;1.70;;
21330;SDS011;10824;51.632;4.950;2022-12-07T17:14:46;3.97;;;1.75;;
21330;SDS011;10824;51.632;4.950;2022-12-07T17:17:33;3.40;;;1.58;;
21330;SDS011;10824;51.632;4.950;2022-12-07T17:20:03;4.72;;;2.92;;
21330;SDS011;10824;51.632;4.950;2022-12-07T17:22:30;5.35;;;2.38;;
21330;SDS011;10824;51.632;4.950;2022-12-07T17:24:57;2.50;;;1.50;;
21330;SDS011;10824;51.632;4.950;2022-12-07T17:27:24;5.03;;;2.80;;
21330;SDS011;10824;51.632;4.950;2022-12-07T17:29:51;4.88;;;2.08;;
21330;SDS011;10824;51.632;4.950;2022-12-07T17:32:19;3.35;;;1.35;;
21330;SDS011;10824;51.632;4.950;2022-12-07T17:34:46;2.55;;;0.93;;
21330;SDS011;10824;51.632;4.950;2022-12-07T17:37:13;2.70;;;1.40;;
21330;SDS011;10824;51.632;4.950;2022-12-07T17:39:40;3.70;;;1.77;;
21330;SDS011;10824;51.632;4.950;2022-12-07T17:42:07;2.33;;;1.55;;